The Internet Pinball Serial Number Database or IPSND collects serial numbers of pinball machines and publishes a database of these on the Internet. Our goal is to make available a registration of all pinball machines in existence and allow tools for slicing, dicing and visualization of the data.

Games: 6,217  Serials: 50,144  Visitors: 28,601,461  Members: 3,760  Photos: 27,102  Lat/Lng: 24,955  Masks: 50,144(806.56 %)  Traits: 503  Nudges: 137,886  Backglasses: 1,862
  Most Serials: Twilight Zone(1,043)  Most Submissions: Dennis Braun(3,294)  Most Points: Rod McLarge(27,988)  Highest Quality: Jim Butler(9.15)  Most Nudges: King of Pinball(18,498)
Submitter: Fun House
Member Since: Thursday, September 22, 2016
Submissions: 2,362 (4th)
SerialBot: 19,275 Points Total (3rd), 7.20 Average Score (3,056th)
Nudges: 2,259(16th)
DateGameSerialNumberGame PartSerialBotDetails
 Item 1 to 100 of 2362
Page:of 24 Page size:
4/20/2019 Phantom of the Opera 00827355 Complete Game 00827355
4/18/2019 The Lord of the Rings 200130 Complete Game 200130
4/16/2019 The Flintstones 51029101451 Other Parts 51029101451
4/16/2019 Twilight Zone 50220101151 Complete Game 50220101151
4/16/2019 White Water 50118915110 Complete Game 50118915110
4/16/2019 Revenge From Mars 51470101101 Complete Game 51470101101
4/16/2019 Revenge From Mars 59570102726 Complete Game 59570102726
4/15/2019 Indianapolis 500 51126101070 Complete Game 51126101070
4/14/2019 Surf Champ 14193 Complete Game 14193
4/14/2019 Indiana Jones: The Pinball Adventure 50417858060 Complete Game 50417858060
4/14/2019 Indiana Jones: The Pinball Adventure 50217858050 Complete Game 50217858050
4/14/2019 Super-Flite 216621 Complete Game 216621
4/14/2019 Dirty Harry 50330113397 Other Parts 50330113397
4/14/2019 Johnny Mnemonic 50242101482 Complete Game 50242101482
4/14/2019 Safe Cracker 93303100414 Other Parts 93303100414
4/14/2019 Safe Cracker 90203100979 Complete Game 90203100979
4/14/2019 Split Second 705 Complete Game 705
4/14/2019 Indianapolis 500 51826101406 Complete Game 51826101406
4/14/2019 Millionaire 555I59864 Complete Game 555I59864
4/14/2019 The Flintstones 52529103776 Other Parts 52529103776
4/14/2019 Congo 50250100373 Other Parts 50250100373
4/14/2019 Attack from Mars 50441101908 Complete Game 50441101908
4/14/2019 Harlem Globetrotters On Tour EGT8182 Complete Game EGT8182
4/13/2019 Hook 52489 Complete Game 52489
4/11/2019 Revenge From Mars 53670100001 Complete Game 53670100001
4/11/2019 Revenge From Mars 51070101218 Other Parts 51070101218
4/11/2019 Revenge From Mars 59570101233 Complete Game 59570101233
4/9/2019 Aerosmith (Pro) E265912 Complete Game E265912
4/9/2019 Pirates of the Caribbean E201468 Complete Game E201468
4/9/2019 Ghostbusters (Pro) E258613 Complete Game E258613
4/9/2019 Tales of the Arabian Nights 51347100105 Complete Game 51347100105
4/9/2019 Dirty Harry 51430112292 Complete Game 51430112292
4/8/2019 Sky Jump 04739 Complete Game 04739
4/8/2019 Freefall 3729 Complete Game 3729
4/8/2019 Twilight Zone 50120051201 Complete Game 50120051201
4/8/2019 Fish Tales 50005022275 Complete Game 50005022275
4/7/2019 Vector EVE1066 Complete Game EVE1066
4/7/2019 Red & Ted's Road Show 52224100754 Complete Game 52224100754
4/7/2019 Eight Ball EEB1268 Complete Game EEB1268
4/6/2019 Star Trek: The Next Generation 53323437811 Other Parts 53323437811
4/5/2019 Fish Tales 50005021770 Other Parts 50005021770
4/2/2019 Mystic EMY3976 Other Parts EMY3976
4/2/2019 Houdini Master of Mystery HOU1388 Complete Game HOU1388
4/1/2019 The Addams Family 20017I047177 Complete Game 20017I047177
4/1/2019 No Fear: Dangerous Sports 53325103355 Complete Game 53325103355
3/30/2019 Star Trek: The Next Generation 53323316692 Other Parts 53323316692
3/30/2019 34276 Other Parts 34276
3/30/2019 Red & Ted's Road Show 52524105209 Other Parts 52524105209
3/29/2019 Dirty Harry 53330114022 Complete Game 53330114022
3/29/2019 The Addams Family 20017I046627 Other Parts 20017I046627
3/28/2019 Twilight Zone 52720130582 Complete Game 52720130582
3/28/2019 The Flintstones 51029101451 Other Parts 51029101451
3/28/2019 Terminator 3: Rise of the Machines E172449 Complete Game E172449
3/28/2019 The Sopranos® E192376 Complete Game E192376
3/28/2019 The Sopranos® 191520 Complete Game 191520
3/28/2019 Shrek™ E216832 Complete Game E216832
3/28/2019 Doctor Who 20006060866 Other Parts 20006060866
3/28/2019 Popeye Saves the Earth 50222362102 Other Parts 50222362102
3/28/2019 White Water 51418822950 Complete Game 51418822950
3/28/2019 The Getaway: High Speed II 50004I095628 Other Parts 50004I095628
3/28/2019 Red & Ted's Road Show 52224101100 Other Parts 52224101100
3/28/2019 White Water 50118029592 Complete Game 50118029592
3/28/2019 No Fear: Dangerous Sports 51425103778 Complete Game 51425103778
3/28/2019 The Flintstones 52029104069 Other Parts 52029104069
3/28/2019 The Flintstones 50229100383 Complete Game 50229100383
3/28/2019 Corvette 51436102954 Other Parts 51436102954
3/28/2019 Doctor Who 20006I066022 Complete Game 20006I066022
3/27/2019 The Flintstones 50429102339 Complete Game 50429102339
3/27/2019 Corvette 50236100029 Other Parts 50236100029
3/27/2019 Q*Bert's Quest 8468 Complete Game 8468
3/26/2019 20004840276 Other Parts 20004840276
3/26/2019 Bram Stoker's Dracula 52701061741 Other Parts 52701061741
3/26/2019 Whirlwind 574330481 Other Parts 574330481
3/26/2019 61339 Other Parts 61339
3/25/2019 Disney TRON Legacy 237759 Complete Game 237759
3/24/2019 Total Nuclear Annihilation 164 Complete Game 164
3/13/2019 Star Trek: The Next Generation 51023276402 Other Parts 51023276402
3/13/2019 Star Trek: The Next Generation 51023391761 Complete Game 51023391761
3/10/2019 461555 Other Parts 461555
3/5/2019 Dr. Dude And His Excellent Ray 2016490558 Other Parts 2016490558
3/5/2019 Mousin' Around! 2009300453 Other Parts 2009300453
3/5/2019 Fish Tales 50005021650 Other Parts 50005021650
3/5/2019 Robocop 00617105 Other Parts 00617105
3/4/2019 Family Guy 207677 Complete Game 207677
3/4/2019 Fish Tales 50005I197458 Other Parts 50005I197458
3/4/2019 The Shadow 52832101584 Complete Game 52832101584
3/2/2019 Hot Hand 7433 Complete Game 7433
3/2/2019 Cirqus Voltaire 50262100006 Complete Game 50262100006
3/2/2019 Joust 619365 Complete Game 619365
2/28/2019 Houdini Master of Mystery HOU1336 Complete Game HOU1336
2/28/2019 4002K350017 Other Parts 4002K350017
2/27/2019 The Addams Family Special Collectors Edition 53338404042 Complete Game 53338404042
2/26/2019 Indiana Jones: The Pinball Adventure 51017151732 Other Parts 51017151732
2/26/2019 Aspen 3026 Complete Game 3026
2/26/2019 Medieval Madness (Remake Standard Edition) MM1256 Complete Game MM1256
2/25/2019 Harlem Globetrotters On Tour EGT13319 Complete Game EGT13319
2/25/2019 Funhouse 50003I578716 Complete Game 50003I578716
2/25/2019 Goldeneye 128884 Complete Game 128884
2/25/2019 Star Trek: The Next Generation 51323289922 Other Parts 51323289922
2/25/2019 Star Trek: The Next Generation 50223396941 Complete Game 50223396941

Supported Browsers
Back 5 | Random | Forward 5 | List ]